createdAt,value
2016-11-29T00:00:27.231Z,0
2016-11-29T00:01:35.922Z,0
2016-11-29T00:02:44.656Z,0
2016-11-29T00:03:53.341Z,0
2016-11-29T00:05:02.028Z,0
2016-11-29T00:06:10.712Z,0
2016-11-29T00:07:19.461Z,0
2016-11-29T00:08:28.347Z,0
2016-11-29T00:09:37.032Z,0
2016-11-29T00:10:45.718Z,0
2016-11-29T00:11:54.434Z,0
2016-11-29T00:13:03.125Z,0
2016-11-29T00:14:11.863Z,0
2016-11-29T00:15:20.550Z,0
2016-11-29T00:16:29.263Z,0
2016-11-29T00:17:37.954Z,0
2016-11-29T00:18:46.639Z,0
2016-11-29T00:19:55.373Z,0
2016-11-29T00:21:04.063Z,0
2016-11-29T00:22:12.751Z,0
2016-11-29T00:23:21.444Z,0
2016-11-29T00:24:30.130Z,0
2016-11-29T00:25:38.868Z,0
2016-11-29T00:26:47.557Z,0
2016-11-29T00:27:56.245Z,0
2016-11-29T00:29:04.930Z,0
2016-11-29T00:30:13.618Z,0
2016-11-29T00:31:22.353Z,0
2016-11-29T00:32:31.383Z,0
2016-11-29T00:33:40.065Z,0
2016-11-29T00:34:48.755Z,0
2016-11-29T00:35:57.442Z,0
2016-11-29T00:37:06.181Z,0
2016-11-29T00:38:14.872Z,0
2016-11-29T00:39:23.560Z,0
2016-11-29T00:40:32.245Z,0
2016-11-29T00:41:40.926Z,0
2016-11-29T00:42:49.706Z,0
2016-11-29T00:43:58.393Z,0
2016-11-29T00:45:07.082Z,0
2016-11-29T00:46:15.779Z,0
2016-11-29T00:47:24.468Z,0
2016-11-29T00:48:33.236Z,0
2016-11-29T00:49:41.959Z,0
2016-11-29T00:50:50.643Z,0
2016-11-29T00:51:59.330Z,0
2016-11-29T00:53:08.016Z,0
2016-11-29T00:54:16.763Z,0
2016-11-29T00:55:25.448Z,0
2016-11-29T00:56:34.136Z,0
2016-11-29T00:57:42.825Z,0
2016-11-29T00:58:51.513Z,0
2016-11-29T01:00:00.562Z,0
2016-11-29T01:01:09.245Z,0
2016-11-29T01:02:17.928Z,0
2016-11-29T01:03:26.624Z,0
2016-11-29T01:04:35.316Z,0
2016-11-29T01:05:44.058Z,0
2016-11-29T01:06:52.744Z,0
2016-11-29T01:08:01.436Z,0
2016-11-29T01:09:10.123Z,0
2016-11-29T01:10:18.836Z,0
2016-11-29T01:11:27.573Z,0
2016-11-29T01:12:36.261Z,0
2016-11-29T01:13:44.948Z,0
2016-11-29T01:14:53.632Z,0
2016-11-29T01:16:02.323Z,0
2016-11-29T01:17:11.012Z,0
2016-11-29T01:18:19.694Z,0
2016-11-29T01:19:28.383Z,0
2016-11-29T01:20:37.072Z,0
2016-11-29T01:21:45.760Z,0
2016-11-29T01:22:54.443Z,0
2016-11-29T01:24:03.469Z,0
2016-11-29T01:25:12.160Z,0
2016-11-29T01:26:20.848Z,0
2016-11-29T01:27:29.535Z,0
2016-11-29T01:28:38.255Z,0
2016-11-29T01:29:46.935Z,0
2016-11-29T01:30:55.626Z,0
2016-11-29T01:32:04.311Z,0
2016-11-29T01:33:13.002Z,0
2016-11-29T01:34:21.715Z,0
2016-11-29T01:35:30.403Z,0
2016-11-29T01:36:39.093Z,0
2016-11-29T01:37:47.773Z,0
2016-11-29T01:38:56.458Z,0
2016-11-29T01:40:05.145Z,0
2016-11-29T01:41:13.837Z,0
2016-11-29T01:42:22.520Z,0
2016-11-29T01:43:31.206Z,0
2016-11-29T01:44:39.920Z,0
2016-11-29T01:45:48.606Z,0
2016-11-29T01:46:57.289Z,0
2016-11-29T01:48:05.969Z,0
2016-11-29T01:49:14.658Z,0
2016-11-29T01:50:23.340Z,0
2016-11-29T01:51:32.058Z,0
2016-11-29T01:52:41.058Z,0
2016-11-29T01:53:49.747Z,0
2016-11-29T01:54:58.439Z,0
2016-11-29T01:56:07.127Z,0
2016-11-29T01:57:15.820Z,0
2016-11-29T01:58:24.505Z,0
2016-11-29T01:59:33.196Z,0
2016-11-29T02:00:41.888Z,0
2016-11-29T02:01:50.577Z,0
2016-11-29T02:02:59.264Z,0
2016-11-29T02:04:07.952Z,0
2016-11-29T02:05:16.635Z,0
2016-11-29T02:06:25.323Z,0
2016-11-29T02:07:34.009Z,0
2016-11-29T02:08:42.698Z,0
2016-11-29T02:09:51.376Z,0
2016-11-29T02:11:00.063Z,0
2016-11-29T02:12:08.785Z,0
2016-11-29T02:13:17.470Z,0
2016-11-29T02:14:26.187Z,0
2016-11-29T02:15:34.872Z,0
2016-11-29T02:16:43.560Z,0
2016-11-29T02:17:52.245Z,0
2016-11-29T02:19:00.934Z,0
2016-11-29T02:20:09.617Z,0
2016-11-29T02:21:18.300Z,0
2016-11-29T02:22:26.984Z,0
2016-11-29T02:23:35.670Z,0
2016-11-29T02:24:44.352Z,0
2016-11-29T02:25:53.040Z,0
2016-11-29T02:27:01.727Z,0
2016-11-29T02:28:10.423Z,0
2016-11-29T02:29:19.106Z,0
2016-11-29T02:30:27.791Z,0
2016-11-29T02:31:36.481Z,0
2016-11-29T02:32:45.171Z,0
2016-11-29T02:33:53.889Z,0
2016-11-29T02:35:02.577Z,0
2016-11-29T02:36:11.262Z,0
2016-11-29T02:37:19.949Z,0
2016-11-29T02:38:28.635Z,0
2016-11-29T02:39:37.324Z,0
2016-11-29T02:40:46.017Z,0
2016-11-29T02:41:54.703Z,0
2016-11-29T02:43:03.390Z,0
2016-11-29T02:44:12.078Z,0
2016-11-29T02:45:20.765Z,0
2016-11-29T02:46:29.448Z,0
2016-11-29T02:47:38.130Z,0
2016-11-29T02:48:46.820Z,0
2016-11-29T02:49:55.502Z,0
2016-11-29T02:51:04.188Z,0
2016-11-29T02:52:12.871Z,0
2016-11-29T02:53:21.556Z,0
2016-11-29T02:54:30.246Z,0
2016-11-29T02:55:38.932Z,0
2016-11-29T02:56:47.616Z,0
2016-11-29T02:57:56.623Z,0
2016-11-29T02:59:05.307Z,0
2016-11-29T03:00:13.996Z,0
2016-11-29T03:01:22.680Z,0
2016-11-29T03:02:31.363Z,0
2016-11-29T03:03:40.047Z,0
2016-11-29T03:04:48.734Z,0
2016-11-29T03:05:57.424Z,0
2016-11-29T03:07:06.112Z,0
2016-11-29T03:08:14.798Z,0
2016-11-29T03:09:23.481Z,0
2016-11-29T03:10:32.171Z,0
2016-11-29T03:11:40.858Z,0
2016-11-29T03:12:49.573Z,0
2016-11-29T03:13:58.260Z,0
2016-11-29T03:15:06.957Z,0
2016-11-29T03:16:15.651Z,0
2016-11-29T03:17:24.334Z,0
2016-11-29T03:18:33.019Z,0
2016-11-29T03:19:41.712Z,0
2016-11-29T03:20:50.401Z,0
2016-11-29T03:21:59.088Z,0
2016-11-29T03:23:07.876Z,0
2016-11-29T03:24:16.561Z,0
2016-11-29T03:25:25.283Z,0
2016-11-29T03:26:33.963Z,0
2016-11-29T03:27:42.650Z,0
2016-11-29T03:28:51.341Z,0
2016-11-29T03:30:00.031Z,0
2016-11-29T03:31:08.726Z,0
2016-11-29T03:32:17.408Z,0
2016-11-29T03:33:26.094Z,0
2016-11-29T03:34:34.779Z,0
2016-11-29T03:35:43.467Z,0
2016-11-29T03:36:52.146Z,0
2016-11-29T03:38:00.830Z,0
2016-11-29T03:39:09.521Z,0
2016-11-29T03:40:18.543Z,0
2016-11-29T03:41:27.224Z,0
2016-11-29T03:42:35.913Z,0
2016-11-29T03:43:44.600Z,0
2016-11-29T03:44:53.295Z,0
2016-11-29T03:46:02.010Z,0
2016-11-29T03:47:10.697Z,0
2016-11-29T03:48:19.380Z,0
2016-11-29T03:49:28.062Z,0
2016-11-29T03:50:36.746Z,0
2016-11-29T03:51:45.432Z,0
2016-11-29T03:52:54.118Z,0
2016-11-29T03:54:02.804Z,0
2016-11-29T03:55:11.493Z,0
2016-11-29T03:56:20.180Z,0
2016-11-29T03:57:28.869Z,0
2016-11-29T03:58:37.556Z,0
2016-11-29T03:59:46.236Z,0
2016-11-29T04:00:54.918Z,0
2016-11-29T04:02:03.933Z,0
2016-11-29T04:03:12.612Z,0
2016-11-29T04:04:21.294Z,0
2016-11-29T04:05:29.976Z,0
2016-11-29T04:06:38.660Z,0
2016-11-29T04:07:47.349Z,0
2016-11-29T04:08:56.031Z,0
2016-11-29T04:10:04.723Z,0
2016-11-29T04:11:13.414Z,0
2016-11-29T04:12:22.094Z,0
2016-11-29T04:13:30.790Z,0
2016-11-29T04:14:39.508Z,0
2016-11-29T04:15:48.192Z,0
2016-11-29T04:16:56.877Z,0
2016-11-29T04:18:05.562Z,0
2016-11-29T04:19:14.252Z,0
2016-11-29T04:20:22.970Z,0
2016-11-29T04:21:31.684Z,0
2016-11-29T04:22:40.371Z,0
2016-11-29T04:23:49.371Z,0
2016-11-29T04:24:58.054Z,0
2016-11-29T04:26:06.741Z,0
2016-11-29T04:27:15.430Z,0
2016-11-29T04:28:24.117Z,0
2016-11-29T04:29:32.810Z,0
2016-11-29T04:30:41.493Z,0
2016-11-29T04:31:50.179Z,0
2016-11-29T04:32:58.865Z,0
2016-11-29T04:34:07.554Z,0
2016-11-29T04:35:16.242Z,0
2016-11-29T04:36:24.926Z,0
2016-11-29T04:37:33.610Z,0
2016-11-29T04:38:42.300Z,0
2016-11-29T04:39:50.989Z,0
2016-11-29T04:40:59.677Z,0
2016-11-29T04:42:08.368Z,0
2016-11-29T04:43:17.054Z,0
2016-11-29T04:44:25.736Z,0
2016-11-29T04:45:34.424Z,0
2016-11-29T04:46:43.111Z,0
2016-11-29T04:47:51.796Z,0
2016-11-29T04:49:00.799Z,0
2016-11-29T04:50:09.486Z,0
2016-11-29T04:51:18.172Z,0
2016-11-29T04:52:27.171Z,0
2016-11-29T04:53:36.171Z,0
2016-11-29T04:54:44.858Z,0
2016-11-29T04:55:53.544Z,0
2016-11-29T04:57:02.224Z,0
2016-11-29T04:58:10.912Z,0
2016-11-29T04:59:19.592Z,0
2016-11-29T05:00:28.273Z,0
2016-11-29T05:01:36.954Z,0
2016-11-29T05:02:45.634Z,0
2016-11-29T05:03:54.320Z,0
2016-11-29T05:05:03.004Z,0
2016-11-29T05:06:11.693Z,0
2016-11-29T05:07:20.379Z,0
2016-11-29T05:08:29.059Z,0
2016-11-29T05:09:37.743Z,0
2016-11-29T05:10:46.426Z,0
2016-11-29T05:11:55.109Z,0
2016-11-29T05:13:03.790Z,0
2016-11-29T05:14:12.473Z,0
2016-11-29T05:15:21.156Z,0
2016-11-29T05:16:29.842Z,0
2016-11-29T05:17:38.521Z,0
2016-11-29T05:18:47.203Z,0
2016-11-29T05:19:55.887Z,0
2016-11-29T05:21:04.573Z,0
2016-11-29T05:22:13.257Z,0
2016-11-29T05:23:21.940Z,0
2016-11-29T05:24:30.619Z,0
2016-11-29T05:25:39.303Z,0
2016-11-29T05:26:48.019Z,0
2016-11-29T05:27:56.701Z,0
2016-11-29T05:29:05.386Z,0
2016-11-29T05:30:14.072Z,0
2016-11-29T05:31:22.755Z,0
2016-11-29T05:32:31.437Z,0
2016-11-29T05:33:40.434Z,0
2016-11-29T05:34:49.116Z,0
2016-11-29T05:35:57.802Z,0
2016-11-29T05:37:06.482Z,0
2016-11-29T05:38:15.164Z,0
2016-11-29T05:39:23.847Z,0
2016-11-29T05:40:32.544Z,0
2016-11-29T05:41:41.228Z,0
2016-11-29T05:42:49.909Z,0
2016-11-29T05:43:58.590Z,0
2016-11-29T05:45:07.638Z,0
2016-11-29T05:46:16.323Z,0
2016-11-29T05:47:25.005Z,0
2016-11-29T05:48:33.692Z,0
2016-11-29T05:49:42.372Z,0
2016-11-29T05:50:51.053Z,0
2016-11-29T05:51:59.738Z,0
2016-11-29T05:53:08.419Z,0
2016-11-29T05:54:17.107Z,0
2016-11-29T05:55:25.788Z,0
2016-11-29T05:56:34.470Z,0
2016-11-29T05:57:43.149Z,0
2016-11-29T05:58:51.834Z,0
2016-11-29T06:00:00.515Z,0
2016-11-29T06:01:09.201Z,0
2016-11-29T06:02:17.883Z,0
2016-11-29T06:03:26.568Z,0
2016-11-29T06:04:35.248Z,0
2016-11-29T06:05:43.930Z,0
2016-11-29T06:06:52.620Z,0
2016-11-29T06:08:01.305Z,0
2016-11-29T06:09:09.987Z,0
2016-11-29T06:10:18.669Z,0
2016-11-29T06:11:27.382Z,0
2016-11-29T06:12:36.062Z,0
2016-11-29T06:13:44.747Z,0
2016-11-29T06:14:53.436Z,0
2016-11-29T06:16:02.441Z,0
2016-11-29T06:17:11.120Z,0
2016-11-29T06:18:19.805Z,0
2016-11-29T06:19:28.486Z,0
2016-11-29T06:20:37.177Z,0
2016-11-29T06:21:45.863Z,0
2016-11-29T06:22:54.564Z,0
2016-11-29T06:24:03.575Z,0
2016-11-29T06:25:12.258Z,0
2016-11-29T06:26:20.944Z,0
2016-11-29T06:27:29.626Z,0
2016-11-29T06:28:38.307Z,0
2016-11-29T06:29:46.993Z,0
2016-11-29T06:30:55.680Z,0
2016-11-29T06:32:04.369Z,0
2016-11-29T06:33:13.090Z,0
2016-11-29T06:34:21.778Z,0
2016-11-29T06:35:30.491Z,0
2016-11-29T06:36:39.176Z,0
2016-11-29T06:37:47.857Z,0
2016-11-29T06:38:56.536Z,0
2016-11-29T06:40:05.222Z,0
2016-11-29T06:41:13.933Z,0
2016-11-29T06:42:22.615Z,0
2016-11-29T06:43:31.297Z,0
2016-11-29T06:44:39.977Z,0
2016-11-29T06:45:48.656Z,0
2016-11-29T06:46:57.340Z,0
2016-11-29T06:48:06.663Z,0
2016-11-29T06:49:15.339Z,0
2016-11-29T06:50:24.028Z,0
2016-11-29T06:51:32.712Z,0
2016-11-29T06:52:41.395Z,0
2016-11-29T06:53:50.080Z,0
2016-11-29T06:54:58.770Z,0
2016-11-29T06:56:07.458Z,0
2016-11-29T06:57:16.154Z,0
2016-11-29T06:58:24.840Z,0
2016-11-29T06:59:33.520Z,0
2016-11-29T07:00:42.207Z,0
2016-11-29T07:01:50.896Z,0
2016-11-29T07:02:59.576Z,0
2016-11-29T07:04:08.298Z,0
2016-11-29T07:05:16.987Z,0
2016-11-29T07:06:25.667Z,0
2016-11-29T07:07:34.356Z,0
2016-11-29T07:08:43.045Z,0
2016-11-29T07:09:51.726Z,0
2016-11-29T07:11:00.408Z,0
2016-11-29T07:12:09.096Z,0
2016-11-29T07:13:17.786Z,0
2016-11-29T07:14:26.463Z,0
2016-11-29T07:15:35.151Z,0
2016-11-29T07:16:43.836Z,0
2016-11-29T07:17:52.522Z,0
2016-11-29T07:19:01.208Z,0
2016-11-29T07:20:09.895Z,0
2016-11-29T07:21:18.580Z,0
2016-11-29T07:22:27.267Z,0
2016-11-29T07:23:35.954Z,0
2016-11-29T07:24:44.635Z,0
2016-11-29T07:25:53.316Z,0
2016-11-29T07:27:01.999Z,0
2016-11-29T07:28:10.682Z,0
2016-11-29T07:29:19.365Z,0
2016-11-29T07:30:28.045Z,0
2016-11-29T07:31:36.763Z,0
2016-11-29T07:32:45.445Z,0
2016-11-29T07:33:54.129Z,0
2016-11-29T07:35:02.822Z,0
2016-11-29T07:36:11.508Z,0
2016-11-29T07:37:20.192Z,0
2016-11-29T07:38:28.880Z,0
2016-11-29T07:39:37.563Z,0
2016-11-29T07:40:46.243Z,0
2016-11-29T07:41:54.926Z,0
2016-11-29T07:43:03.606Z,0
2016-11-29T07:44:12.610Z,0
2016-11-29T07:45:21.295Z,5
2016-11-29T07:46:29.979Z,5
2016-11-29T07:47:38.658Z,5
2016-11-29T07:48:47.345Z,5
2016-11-29T07:49:56.025Z,5
2016-11-29T07:51:04.704Z,5
2016-11-29T07:52:13.387Z,5
2016-11-29T07:53:22.107Z,5
2016-11-29T07:54:30.787Z,5
2016-11-29T07:55:39.467Z,5
2016-11-29T07:56:48.148Z,5
2016-11-29T07:57:57.147Z,5
2016-11-29T07:59:05.831Z,5
2016-11-29T08:00:14.523Z,5
2016-11-29T08:01:23.534Z,10
2016-11-29T08:02:32.221Z,10
2016-11-29T08:03:40.903Z,10
2016-11-29T08:04:49.583Z,10
2016-11-29T08:05:58.269Z,10
2016-11-29T08:07:06.952Z,10
2016-11-29T08:08:15.634Z,10
2016-11-29T08:09:24.318Z,10
2016-11-29T08:10:33.008Z,15
2016-11-29T08:11:41.691Z,15
2016-11-29T08:12:50.371Z,15
2016-11-29T08:13:59.376Z,15
2016-11-29T08:15:08.098Z,20
2016-11-29T08:16:16.778Z,20
2016-11-29T08:17:25.461Z,20
2016-11-29T08:18:34.141Z,20
2016-11-29T08:19:42.858Z,20
2016-11-29T08:20:51.541Z,25
2016-11-29T08:22:00.254Z,25
2016-11-29T08:23:09.252Z,25
2016-11-29T08:24:17.928Z,25
2016-11-29T08:25:26.609Z,30
2016-11-29T08:26:35.288Z,30
2016-11-29T08:27:43.972Z,30
2016-11-29T08:28:52.652Z,30
2016-11-29T08:30:01.335Z,30
2016-11-29T08:31:10.029Z,35
2016-11-29T08:32:18.714Z,35
2016-11-29T08:33:27.411Z,35
2016-11-29T08:34:36.099Z,35
2016-11-29T08:35:44.784Z,40
2016-11-29T08:36:53.469Z,40
2016-11-29T08:38:02.151Z,40
2016-11-29T08:39:10.834Z,40
2016-11-29T08:40:19.523Z,45
2016-11-29T08:41:28.203Z,45
2016-11-29T08:42:36.887Z,45
2016-11-29T08:43:45.572Z,45
2016-11-29T08:44:54.570Z,50
2016-11-29T08:46:03.257Z,50
2016-11-29T08:47:11.939Z,50
2016-11-29T08:48:20.948Z,50
2016-11-29T08:49:29.953Z,55
2016-11-29T08:50:38.635Z,55
2016-11-29T08:51:47.342Z,55
2016-11-29T08:52:56.029Z,55
2016-11-29T08:54:04.710Z,60
2016-11-29T08:55:13.393Z,60
2016-11-29T08:56:22.071Z,60
2016-11-29T08:57:30.782Z,60
2016-11-29T08:58:39.465Z,60
2016-11-29T08:59:48.151Z,60
2016-11-29T09:00:56.829Z,65
2016-11-29T09:02:05.515Z,65
2016-11-29T09:03:14.196Z,70
2016-11-29T09:04:23.191Z,70
2016-11-29T09:05:31.874Z,70
2016-11-29T09:06:40.558Z,75
2016-11-29T09:07:49.248Z,75
2016-11-29T09:08:57.932Z,75
2016-11-29T09:10:06.624Z,80
2016-11-29T09:11:15.311Z,80
2016-11-29T09:12:24.038Z,80
2016-11-29T09:13:32.769Z,85
2016-11-29T09:14:41.775Z,85
2016-11-29T09:15:50.461Z,85
2016-11-29T09:16:59.155Z,90
2016-11-29T09:18:07.836Z,90
2016-11-29T09:19:16.522Z,90
2016-11-29T09:20:25.209Z,90
2016-11-29T09:21:33.896Z,95
2016-11-29T09:22:42.582Z,95
2016-11-29T09:23:51.261Z,95
2016-11-29T09:24:59.948Z,100
2016-11-29T09:26:08.633Z,100
2016-11-29T09:27:17.316Z,100
2016-11-29T09:28:26.002Z,100
2016-11-29T09:29:34.684Z,105
2016-11-29T09:30:43.377Z,105
2016-11-29T09:31:52.390Z,105
2016-11-29T09:33:01.073Z,105
2016-11-29T09:34:09.759Z,105
2016-11-29T09:35:18.443Z,105
2016-11-29T09:36:27.130Z,105
2016-11-29T09:37:35.813Z,105
2016-11-29T09:38:44.494Z,110
2016-11-29T09:39:53.176Z,110
2016-11-29T09:41:01.861Z,110
2016-11-29T09:42:10.547Z,115
2016-11-29T09:43:19.554Z,115
2016-11-29T09:44:28.240Z,115
2016-11-29T09:45:36.923Z,115
2016-11-29T09:46:45.611Z,120
2016-11-29T09:47:54.301Z,120
2016-11-29T09:49:02.993Z,120
2016-11-29T09:50:11.679Z,125
2016-11-29T09:51:20.368Z,125
2016-11-29T09:52:29.054Z,125
2016-11-29T09:53:37.737Z,130
2016-11-29T09:54:46.419Z,130
2016-11-29T09:55:55.104Z,130
2016-11-29T09:57:03.817Z,130
2016-11-29T09:58:12.502Z,135
2016-11-29T09:59:21.184Z,135
2016-11-29T10:00:29.864Z,135
2016-11-29T10:01:38.549Z,135
2016-11-29T10:02:47.237Z,135
2016-11-29T10:03:55.931Z,140
2016-11-29T10:05:04.614Z,140
2016-11-29T10:06:13.305Z,135
2016-11-29T10:07:22.051Z,140
2016-11-29T10:08:30.733Z,140
2016-11-29T10:09:39.415Z,135
2016-11-29T10:10:48.101Z,140
2016-11-29T10:11:56.790Z,140
2016-11-29T10:13:05.792Z,140
2016-11-29T10:14:14.471Z,140
2016-11-29T10:15:23.159Z,145
2016-11-29T10:16:31.843Z,145
2016-11-29T10:17:40.535Z,145
2016-11-29T10:18:49.224Z,145
2016-11-29T10:19:57.916Z,150
2016-11-29T10:21:06.608Z,150
2016-11-29T10:22:15.289Z,150
2016-11-29T10:23:23.979Z,155
2016-11-29T10:24:32.666Z,155
2016-11-29T10:25:41.378Z,165
2016-11-29T10:26:50.068Z,195
2016-11-29T10:27:58.755Z,230
2016-11-29T10:29:07.747Z,240
2016-11-29T10:30:16.427Z,205
2016-11-29T10:31:25.111Z,185
2016-11-29T10:32:33.795Z,185
2016-11-29T10:33:42.494Z,180
2016-11-29T10:34:51.176Z,165
2016-11-29T10:35:59.860Z,165
2016-11-29T10:37:08.554Z,160
2016-11-29T10:38:17.267Z,160
2016-11-29T10:39:25.950Z,150
2016-11-29T10:40:34.637Z,150
2016-11-29T10:41:43.322Z,150
2016-11-29T10:42:52.007Z,150
2016-11-29T10:44:00.687Z,145
2016-11-29T10:45:09.692Z,140
2016-11-29T10:46:18.381Z,135
2016-11-29T10:47:27.065Z,130
2016-11-29T10:48:35.747Z,130
2016-11-29T10:49:44.437Z,130
2016-11-29T10:50:53.121Z,130
2016-11-29T10:52:01.805Z,130
2016-11-29T10:53:10.493Z,130
2016-11-29T10:54:19.177Z,130
2016-11-29T10:55:27.865Z,125
2016-11-29T10:56:36.547Z,125
2016-11-29T10:57:45.235Z,125
2016-11-29T10:58:53.916Z,120
2016-11-29T11:00:02.601Z,120
2016-11-29T11:01:11.288Z,115
2016-11-29T11:02:19.974Z,120
2016-11-29T11:03:28.972Z,115
2016-11-29T11:04:37.658Z,115
2016-11-29T11:05:46.355Z,110
2016-11-29T11:06:55.036Z,105
2016-11-29T11:08:03.722Z,100
2016-11-29T11:09:12.406Z,95
2016-11-29T11:10:21.088Z,95
2016-11-29T11:11:29.783Z,95
2016-11-29T11:12:38.570Z,90
2016-11-29T11:13:47.257Z,90
2016-11-29T11:14:56.266Z,90
2016-11-29T11:16:04.949Z,90
2016-11-29T11:17:13.634Z,90
2016-11-29T11:18:22.318Z,95
2016-11-29T11:19:31.006Z,95
2016-11-29T11:20:39.688Z,95
2016-11-29T11:21:48.370Z,100
2016-11-29T11:22:57.057Z,100
2016-11-29T11:24:05.742Z,105
2016-11-29T11:25:14.444Z,105
2016-11-29T11:26:23.133Z,110
2016-11-29T11:27:31.820Z,110
2016-11-29T11:28:40.500Z,120
2016-11-29T11:29:49.185Z,125
2016-11-29T11:30:57.869Z,130
2016-11-29T11:32:06.556Z,135
2016-11-29T11:33:15.243Z,135
2016-11-29T11:34:23.926Z,130
2016-11-29T11:35:32.609Z,130
2016-11-29T11:36:41.288Z,125
2016-11-29T11:37:49.971Z,125
2016-11-29T11:38:58.654Z,120
2016-11-29T11:40:07.344Z,120
2016-11-29T11:41:16.033Z,115
2016-11-29T11:42:24.723Z,115
2016-11-29T11:43:33.751Z,110
2016-11-29T11:44:42.444Z,100
2016-11-29T11:45:51.128Z,95
2016-11-29T11:46:59.877Z,95
2016-11-29T11:48:08.560Z,85
2016-11-29T11:49:17.244Z,85
2016-11-29T11:50:25.947Z,80
2016-11-29T11:51:34.656Z,80
2016-11-29T11:52:43.340Z,80
2016-11-29T11:53:52.027Z,80
2016-11-29T11:55:00.822Z,80
2016-11-29T11:56:09.564Z,75
2016-11-29T11:57:18.248Z,75
2016-11-29T11:58:26.934Z,75
2016-11-29T11:59:35.622Z,75
2016-11-29T12:00:44.313Z,75
2016-11-29T12:01:52.999Z,75
2016-11-29T12:03:01.682Z,75
2016-11-29T12:04:10.370Z,70
2016-11-29T12:05:19.054Z,70
2016-11-29T12:06:27.739Z,70
2016-11-29T12:07:36.754Z,70
2016-11-29T12:08:45.432Z,70
2016-11-29T12:09:54.154Z,65
2016-11-29T12:11:02.839Z,65
2016-11-29T12:12:11.872Z,65
2016-11-29T12:13:20.558Z,70
2016-11-29T12:14:29.566Z,70
2016-11-29T12:15:38.261Z,75
2016-11-29T12:16:46.945Z,75
2016-11-29T12:17:55.799Z,80
2016-11-29T12:19:04.500Z,85
2016-11-29T12:20:13.188Z,85
2016-11-29T12:21:21.876Z,90
2016-11-29T12:22:30.562Z,90
2016-11-29T12:23:39.260Z,90
2016-11-29T12:24:47.939Z,95
2016-11-29T12:25:56.623Z,95
2016-11-29T12:27:05.311Z,95
2016-11-29T12:28:13.999Z,95
2016-11-29T12:29:22.683Z,90
2016-11-29T12:30:31.361Z,90
2016-11-29T12:31:40.043Z,90
2016-11-29T12:32:48.730Z,90
2016-11-29T12:33:57.419Z,85
2016-11-29T12:35:06.101Z,85
2016-11-29T12:36:14.788Z,80
2016-11-29T12:37:23.477Z,80
2016-11-29T12:38:32.161Z,75
2016-11-29T12:39:41.308Z,70
2016-11-29T12:40:50.007Z,70
2016-11-29T12:41:58.690Z,65
2016-11-29T12:43:07.698Z,65
2016-11-29T12:44:16.396Z,60
2016-11-29T12:45:25.114Z,55
2016-11-29T12:46:33.803Z,50
2016-11-29T12:47:42.485Z,45
2016-11-29T12:48:51.178Z,40
2016-11-29T12:49:59.860Z,40
2016-11-29T12:51:08.548Z,35
2016-11-29T12:52:17.244Z,35
2016-11-29T12:53:26.737Z,35
2016-11-29T12:54:35.419Z,30
2016-11-29T12:55:44.102Z,30
2016-11-29T12:56:52.785Z,30
2016-11-29T12:58:01.465Z,25
2016-11-29T12:59:10.150Z,25
2016-11-29T13:00:18.834Z,25
2016-11-29T13:01:27.514Z,25
2016-11-29T13:02:36.196Z,30
2016-11-29T13:03:44.883Z,30
2016-11-29T13:04:53.571Z,30
2016-11-29T13:06:02.255Z,30
2016-11-29T13:07:10.942Z,30
2016-11-29T13:08:19.631Z,35
2016-11-29T13:09:28.322Z,35
2016-11-29T13:10:37.054Z,35
2016-11-29T13:11:45.778Z,35
2016-11-29T13:12:54.463Z,35
2016-11-29T13:14:03.464Z,35
2016-11-29T13:15:12.149Z,35
2016-11-29T13:16:20.830Z,35
2016-11-29T13:17:29.527Z,35
2016-11-29T13:18:38.213Z,35
2016-11-29T13:19:46.904Z,35
2016-11-29T13:20:55.582Z,35
2016-11-29T13:22:04.266Z,35
2016-11-29T13:23:13.259Z,40
2016-11-29T13:24:21.996Z,40
2016-11-29T13:25:30.996Z,45
2016-11-29T13:26:39.677Z,45
2016-11-29T13:27:48.362Z,45
2016-11-29T13:28:57.043Z,45
2016-11-29T13:30:05.732Z,45
2016-11-29T13:31:14.423Z,50
2016-11-29T13:32:23.108Z,50
2016-11-29T13:33:31.798Z,50
2016-11-29T13:34:40.482Z,50
2016-11-29T13:35:49.163Z,50
2016-11-29T13:36:57.857Z,50
2016-11-29T13:38:06.540Z,50
2016-11-29T13:39:15.225Z,45
2016-11-29T13:40:23.905Z,45
2016-11-29T13:41:32.588Z,45
2016-11-29T13:42:41.271Z,45
2016-11-29T13:43:49.953Z,45
2016-11-29T13:44:58.636Z,45
2016-11-29T13:46:07.326Z,40
2016-11-29T13:47:16.009Z,40
2016-11-29T13:48:25.006Z,40
2016-11-29T13:49:33.689Z,35
2016-11-29T13:50:42.377Z,35
2016-11-29T13:51:51.064Z,30
2016-11-29T13:52:59.750Z,25
2016-11-29T13:54:08.474Z,25
2016-11-29T13:55:17.494Z,25
2016-11-29T13:56:26.179Z,25
2016-11-29T13:57:34.864Z,25
2016-11-29T13:58:43.548Z,25
2016-11-29T13:59:52.233Z,20
2016-11-29T14:01:00.917Z,20
2016-11-29T14:02:09.609Z,20
2016-11-29T14:03:18.345Z,20
2016-11-29T14:04:27.031Z,15
2016-11-29T14:05:35.716Z,15
2016-11-29T14:06:44.435Z,15
2016-11-29T14:07:53.119Z,15
2016-11-29T14:09:01.806Z,15
2016-11-29T14:10:10.492Z,15
2016-11-29T14:11:19.181Z,15
2016-11-29T14:12:27.866Z,15
2016-11-29T14:13:36.552Z,15
2016-11-29T14:14:45.241Z,15
2016-11-29T14:15:53.921Z,15
2016-11-29T14:17:02.605Z,15
2016-11-29T14:18:11.289Z,15
2016-11-29T14:19:19.971Z,15
2016-11-29T14:20:28.667Z,10
2016-11-29T14:21:37.352Z,10
2016-11-29T14:22:46.039Z,10
2016-11-29T14:23:54.723Z,10
2016-11-29T14:25:03.407Z,10
2016-11-29T14:26:12.091Z,5
2016-11-29T14:27:20.771Z,5
2016-11-29T14:28:29.779Z,5
2016-11-29T14:29:38.467Z,5
2016-11-29T14:30:47.157Z,5
2016-11-29T14:31:55.845Z,5
2016-11-29T14:33:04.530Z,5
2016-11-29T14:34:13.211Z,5
2016-11-29T14:35:21.897Z,5
2016-11-29T14:36:30.582Z,0
2016-11-29T14:37:39.265Z,0
2016-11-29T14:38:47.955Z,0
2016-11-29T14:39:56.641Z,0
2016-11-29T14:41:05.332Z,0
2016-11-29T14:42:14.018Z,0
2016-11-29T14:43:22.698Z,0
2016-11-29T14:44:31.421Z,0
2016-11-29T14:45:40.134Z,0
2016-11-29T14:46:48.820Z,0
2016-11-29T14:47:57.503Z,0
2016-11-29T14:49:06.188Z,0
2016-11-29T14:50:14.873Z,0
2016-11-29T14:51:23.565Z,0
2016-11-29T14:52:32.248Z,0
2016-11-29T14:53:40.937Z,0
2016-11-29T14:54:49.617Z,0
2016-11-29T14:55:58.299Z,0
2016-11-29T14:57:06.982Z,0
2016-11-29T14:58:15.672Z,0
2016-11-29T14:59:24.367Z,0
2016-11-29T15:00:33.362Z,0
2016-11-29T15:01:42.051Z,0
2016-11-29T15:02:50.737Z,0
2016-11-29T15:03:59.422Z,0
2016-11-29T15:05:08.105Z,0
2016-11-29T15:06:16.792Z,0
2016-11-29T15:07:25.500Z,0
2016-11-29T15:08:34.183Z,0
2016-11-29T15:09:42.868Z,0
2016-11-29T15:10:51.552Z,0
2016-11-29T15:12:00.269Z,0
2016-11-29T15:13:08.963Z,0
2016-11-29T15:14:17.650Z,0
2016-11-29T15:15:26.333Z,0
2016-11-29T15:16:35.020Z,0
2016-11-29T15:17:43.706Z,0
2016-11-29T15:18:52.388Z,0
2016-11-29T15:20:01.076Z,0
2016-11-29T15:21:09.762Z,0
2016-11-29T15:22:18.449Z,0
2016-11-29T15:23:27.131Z,0
2016-11-29T15:24:36.133Z,0
2016-11-29T15:25:44.816Z,0
2016-11-29T15:26:53.498Z,0
2016-11-29T15:28:02.176Z,0
2016-11-29T15:29:10.861Z,0
2016-11-29T15:30:19.541Z,0
2016-11-29T15:31:28.223Z,0
2016-11-29T15:32:36.912Z,0
2016-11-29T15:33:45.595Z,0
2016-11-29T15:34:54.288Z,0
2016-11-29T15:36:02.976Z,0
2016-11-29T15:37:11.659Z,0
2016-11-29T15:38:20.340Z,0
2016-11-29T15:39:29.031Z,0
2016-11-29T15:40:37.780Z,0
2016-11-29T15:41:46.788Z,0
2016-11-29T15:42:55.497Z,0
2016-11-29T15:44:04.189Z,0
2016-11-29T15:45:12.875Z,0
2016-11-29T15:46:21.557Z,0
2016-11-29T15:47:30.249Z,0
2016-11-29T15:48:38.956Z,0
2016-11-29T15:49:47.644Z,0
2016-11-29T15:50:56.335Z,0
2016-11-29T15:52:05.017Z,0
2016-11-29T15:53:13.705Z,0
2016-11-29T15:54:22.397Z,0
2016-11-29T15:55:31.080Z,0
2016-11-29T15:56:39.765Z,0
2016-11-29T15:57:48.445Z,0
2016-11-29T15:58:57.129Z,0
2016-11-29T16:00:05.814Z,0
2016-11-29T16:01:14.497Z,0
2016-11-29T16:02:23.178Z,0
2016-11-29T16:03:31.863Z,0
2016-11-29T16:04:40.549Z,0
2016-11-29T16:05:49.550Z,0
2016-11-29T16:06:58.246Z,0
2016-11-29T16:08:07.241Z,0
2016-11-29T16:09:15.943Z,0
2016-11-29T16:10:24.630Z,0
2016-11-29T16:11:33.311Z,0
2016-11-29T16:12:41.995Z,0
2016-11-29T16:13:50.683Z,0
2016-11-29T16:14:59.363Z,0
2016-11-29T16:16:08.051Z,0
2016-11-29T16:17:16.732Z,0
2016-11-29T16:18:25.417Z,0
2016-11-29T16:19:34.108Z,0
2016-11-29T16:20:42.796Z,0
2016-11-29T16:21:51.482Z,0
2016-11-29T16:23:00.166Z,0
2016-11-29T16:24:08.853Z,0
2016-11-29T16:25:17.574Z,0
2016-11-29T16:26:26.255Z,0
2016-11-29T16:27:34.934Z,0
2016-11-29T16:28:43.615Z,0
2016-11-29T16:29:52.299Z,0
2016-11-29T16:31:00.987Z,0
2016-11-29T16:32:09.667Z,0
2016-11-29T16:33:18.351Z,0
2016-11-29T16:34:27.353Z,0
2016-11-29T16:35:36.035Z,0
2016-11-29T16:36:44.718Z,0